sensor_id;sensor_type;location;lat;lon;timestamp;temperature;humidity
34776;DHT22;20989;52.566;13.346;2023-05-17T00:02:49;23.50;56.10
34776;DHT22;20989;52.566;13.346;2023-05-17T00:05:50;23.50;56.10
34776;DHT22;20989;52.566;13.346;2023-05-17T00:08:51;23.50;56.40
34776;DHT22;20989;52.566;13.346;2023-05-17T00:11:52;23.50;56.30
34776;DHT22;20989;52.566;13.346;2023-05-17T00:14:52;23.50;56.30
34776;DHT22;20989;52.566;13.346;2023-05-17T00:17:53;23.50;56.10
34776;DHT22;20989;52.566;13.346;2023-05-17T00:20:55;23.50;56.10
34776;DHT22;20989;52.566;13.346;2023-05-17T00:23:55;23.50;56.00
34776;DHT22;20989;52.566;13.346;2023-05-17T00:26:56;23.50;56.00
34776;DHT22;20989;52.566;13.346;2023-05-17T00:29:57;23.50;56.00
34776;DHT22;20989;52.566;13.346;2023-05-17T00:32:57;23.40;56.40
34776;DHT22;20989;52.566;13.346;2023-05-17T00:35:58;23.50;56.10
34776;DHT22;20989;52.566;13.346;2023-05-17T00:38:59;23.50;56.00
34776;DHT22;20989;52.566;13.346;2023-05-17T00:42:00;23.50;56.10
34776;DHT22;20989;52.566;13.346;2023-05-17T00:45:00;23.40;56.20
34776;DHT22;20989;52.566;13.346;2023-05-17T00:48:01;23.40;55.90
34776;DHT22;20989;52.566;13.346;2023-05-17T00:51:02;23.40;56.20
34776;DHT22;20989;52.566;13.346;2023-05-17T00:54:03;23.40;56.20
34776;DHT22;20989;52.566;13.346;2023-05-17T00:57:05;23.40;56.10
34776;DHT22;20989;52.566;13.346;2023-05-17T01:00:06;23.40;55.90
34776;DHT22;20989;52.566;13.346;2023-05-17T01:03:08;23.50;56.20
34776;DHT22;20989;52.566;13.346;2023-05-17T01:06:09;23.40;55.90
34776;DHT22;20989;52.566;13.346;2023-05-17T01:09:10;23.40;56.20
34776;DHT22;20989;52.566;13.346;2023-05-17T01:15:37;23.40;56.40
34776;DHT22;20989;52.566;13.346;2023-05-17T01:18:45;23.40;56.20
34776;DHT22;20989;52.566;13.346;2023-05-17T01:25:10;23.40;56.10
34776;DHT22;20989;52.566;13.346;2023-05-17T01:28:13;23.40;55.90
34776;DHT22;20989;52.566;13.346;2023-05-17T01:31:16;23.40;56.30
34776;DHT22;20989;52.566;13.346;2023-05-17T01:34:28;23.40;56.40
34776;DHT22;20989;52.566;13.346;2023-05-17T01:37:29;23.40;56.30
34776;DHT22;20989;52.566;13.346;2023-05-17T01:40:34;23.40;56.30
34776;DHT22;20989;52.566;13.346;2023-05-17T01:46:41;23.30;56.10
34776;DHT22;20989;52.566;13.346;2023-05-17T01:49:45;23.30;56.30
34776;DHT22;20989;52.566;13.346;2023-05-17T01:52:51;23.30;56.10
34776;DHT22;20989;52.566;13.346;2023-05-17T01:55:56;23.30;56.40
34776;DHT22;20989;52.566;13.346;2023-05-17T01:59:02;23.30;56.20
34776;DHT22;20989;52.566;13.346;2023-05-17T02:02:04;23.30;56.30
34776;DHT22;20989;52.566;13.346;2023-05-17T02:05:08;23.30;56.10
34776;DHT22;20989;52.566;13.346;2023-05-17T02:08:09;23.30;56.10
34776;DHT22;20989;52.566;13.346;2023-05-17T02:11:10;23.30;56.30
34776;DHT22;20989;52.566;13.346;2023-05-17T02:14:10;23.30;56.20
34776;DHT22;20989;52.566;13.346;2023-05-17T02:17:11;23.30;55.80
34776;DHT22;20989;52.566;13.346;2023-05-17T02:20:12;23.30;56.00
34776;DHT22;20989;52.566;13.346;2023-05-17T02:23:13;23.30;55.70
34776;DHT22;20989;52.566;13.346;2023-05-17T02:26:14;23.30;56.00
34776;DHT22;20989;52.566;13.346;2023-05-17T02:29:14;23.30;56.10
34776;DHT22;20989;52.566;13.346;2023-05-17T02:32:15;23.30;56.00
34776;DHT22;20989;52.566;13.346;2023-05-17T02:35:16;23.30;55.90
34776;DHT22;20989;52.566;13.346;2023-05-17T02:38:16;23.30;55.70
34776;DHT22;20989;52.566;13.346;2023-05-17T02:41:17;23.30;55.70
34776;DHT22;20989;52.566;13.346;2023-05-17T02:44:18;23.30;55.70
34776;DHT22;20989;52.566;13.346;2023-05-17T02:47:18;23.20;55.70
34776;DHT22;20989;52.566;13.346;2023-05-17T02:50:20;23.30;56.40
34776;DHT22;20989;52.566;13.346;2023-05-17T02:53:21;23.30;55.80
34776;DHT22;20989;52.566;13.346;2023-05-17T02:56:21;23.30;55.60
34776;DHT22;20989;52.566;13.346;2023-05-17T02:59:22;23.30;55.60
34776;DHT22;20989;52.566;13.346;2023-05-17T03:02:22;23.30;55.70
34776;DHT22;20989;52.566;13.346;2023-05-17T03:05:23;23.20;55.60
34776;DHT22;20989;52.566;13.346;2023-05-17T03:08:24;23.20;55.60
34776;DHT22;20989;52.566;13.346;2023-05-17T03:11:25;23.20;55.80
34776;DHT22;20989;52.566;13.346;2023-05-17T03:14:26;23.20;55.60
34776;DHT22;20989;52.566;13.346;2023-05-17T03:17:27;23.20;55.70
34776;DHT22;20989;52.566;13.346;2023-05-17T03:20:27;23.30;55.60
34776;DHT22;20989;52.566;13.346;2023-05-17T03:23:28;23.20;55.50
34776;DHT22;20989;52.566;13.346;2023-05-17T03:26:29;23.20;55.60
34776;DHT22;20989;52.566;13.346;2023-05-17T03:29:31;23.20;55.40
34776;DHT22;20989;52.566;13.346;2023-05-17T03:32:32;23.20;55.50
34776;DHT22;20989;52.566;13.346;2023-05-17T03:35:32;23.20;55.50
34776;DHT22;20989;52.566;13.346;2023-05-17T03:38:33;23.20;55.50
34776;DHT22;20989;52.566;13.346;2023-05-17T03:41:34;23.20;55.20
34776;DHT22;20989;52.566;13.346;2023-05-17T03:44:34;23.20;55.30
34776;DHT22;20989;52.566;13.346;2023-05-17T03:47:35;23.20;55.30
34776;DHT22;20989;52.566;13.346;2023-05-17T03:50:36;23.20;55.40
34776;DHT22;20989;52.566;13.346;2023-05-17T03:53:38;23.20;55.40
34776;DHT22;20989;52.566;13.346;2023-05-17T03:56:42;23.20;55.30
34776;DHT22;20989;52.566;13.346;2023-05-17T04:03:33;23.20;55.10
34776;DHT22;20989;52.566;13.346;2023-05-17T04:06:34;23.20;55.00
34776;DHT22;20989;52.566;13.346;2023-05-17T04:09:34;23.20;55.10
34776;DHT22;20989;52.566;13.346;2023-05-17T04:12:36;23.10;55.20
34776;DHT22;20989;52.566;13.346;2023-05-17T04:15:37;23.20;55.10
34776;DHT22;20989;52.566;13.346;2023-05-17T04:18:37;23.20;55.00
34776;DHT22;20989;52.566;13.346;2023-05-17T04:21:38;23.20;54.90
34776;DHT22;20989;52.566;13.346;2023-05-17T04:24:39;23.20;54.90
34776;DHT22;20989;52.566;13.346;2023-05-17T04:27:40;23.10;54.80
34776;DHT22;20989;52.566;13.346;2023-05-17T04:30:42;23.20;54.90
34776;DHT22;20989;52.566;13.346;2023-05-17T04:33:42;23.10;54.80
34776;DHT22;20989;52.566;13.346;2023-05-17T04:36:43;23.10;54.60
34776;DHT22;20989;52.566;13.346;2023-05-17T04:39:44;23.10;54.50
34776;DHT22;20989;52.566;13.346;2023-05-17T04:42:45;23.20;54.40
34776;DHT22;20989;52.566;13.346;2023-05-17T04:45:45;23.30;54.40
34776;DHT22;20989;52.566;13.346;2023-05-17T04:48:46;23.30;53.90
34776;DHT22;20989;52.566;13.346;2023-05-17T04:51:47;23.30;54.00
34776;DHT22;20989;52.566;13.346;2023-05-17T04:54:47;23.40;53.90
34776;DHT22;20989;52.566;13.346;2023-05-17T04:57:49;23.40;54.10
34776;DHT22;20989;52.566;13.346;2023-05-17T05:00:50;23.30;54.30
34776;DHT22;20989;52.566;13.346;2023-05-17T05:03:51;23.30;53.80
34776;DHT22;20989;52.566;13.346;2023-05-17T05:06:52;23.40;53.70
34776;DHT22;20989;52.566;13.346;2023-05-17T05:09:53;23.40;53.90
34776;DHT22;20989;52.566;13.346;2023-05-17T05:12:53;23.40;53.40
34776;DHT22;20989;52.566;13.346;2023-05-17T05:15:54;23.40;53.90
34776;DHT22;20989;52.566;13.346;2023-05-17T05:18:55;23.40;54.00
34776;DHT22;20989;52.566;13.346;2023-05-17T05:21:56;23.40;53.90
34776;DHT22;20989;52.566;13.346;2023-05-17T05:24:56;23.50;53.70
34776;DHT22;20989;52.566;13.346;2023-05-17T05:27:57;23.50;53.80
34776;DHT22;20989;52.566;13.346;2023-05-17T05:30:59;23.50;53.90
34776;DHT22;20989;52.566;13.346;2023-05-17T05:34:00;23.60;53.70
34776;DHT22;20989;52.566;13.346;2023-05-17T05:37:01;23.70;53.60
34776;DHT22;20989;52.566;13.346;2023-05-17T05:40:02;23.80;53.80
34776;DHT22;20989;52.566;13.346;2023-05-17T05:43:02;23.90;53.30
34776;DHT22;20989;52.566;13.346;2023-05-17T05:46:03;23.80;53.30
34776;DHT22;20989;52.566;13.346;2023-05-17T05:49:04;23.80;53.30
34776;DHT22;20989;52.566;13.346;2023-05-17T05:52:06;23.70;53.50
34776;DHT22;20989;52.566;13.346;2023-05-17T05:55:07;23.70;52.90
34776;DHT22;20989;52.566;13.346;2023-05-17T05:58:08;23.80;52.90
34776;DHT22;20989;52.566;13.346;2023-05-17T06:01:09;23.90;53.10
34776;DHT22;20989;52.566;13.346;2023-05-17T06:04:10;23.80;53.30
34776;DHT22;20989;52.566;13.346;2023-05-17T06:07:11;23.90;53.60
34776;DHT22;20989;52.566;13.346;2023-05-17T06:10:12;23.80;53.20
34776;DHT22;20989;52.566;13.346;2023-05-17T06:13:12;23.80;53.10
34776;DHT22;20989;52.566;13.346;2023-05-17T06:16:13;23.70;53.10
34776;DHT22;20989;52.566;13.346;2023-05-17T06:19:14;23.70;53.20
34776;DHT22;20989;52.566;13.346;2023-05-17T06:22:15;23.70;53.30
34776;DHT22;20989;52.566;13.346;2023-05-17T06:25:16;23.70;52.70
34776;DHT22;20989;52.566;13.346;2023-05-17T06:28:17;23.70;53.00
34776;DHT22;20989;52.566;13.346;2023-05-17T06:31:17;23.80;52.70
34776;DHT22;20989;52.566;13.346;2023-05-17T06:34:18;23.70;53.50
34776;DHT22;20989;52.566;13.346;2023-05-17T06:37:19;23.80;52.80
34776;DHT22;20989;52.566;13.346;2023-05-17T06:40:19;23.90;52.50
34776;DHT22;20989;52.566;13.346;2023-05-17T06:43:20;24.00;52.10
34776;DHT22;20989;52.566;13.346;2023-05-17T06:46:21;24.00;52.30
34776;DHT22;20989;52.566;13.346;2023-05-17T06:49:22;24.00;52.10
34776;DHT22;20989;52.566;13.346;2023-05-17T06:52:22;24.00;52.20
34776;DHT22;20989;52.566;13.346;2023-05-17T06:55:23;23.80;52.60
34776;DHT22;20989;52.566;13.346;2023-05-17T06:58:24;23.70;52.50
34776;DHT22;20989;52.566;13.346;2023-05-17T07:01:24;23.70;52.40
34776;DHT22;20989;52.566;13.346;2023-05-17T07:04:25;23.60;52.20
34776;DHT22;20989;52.566;13.346;2023-05-17T07:07:26;23.70;52.40
34776;DHT22;20989;52.566;13.346;2023-05-17T07:10:27;23.70;52.40
34776;DHT22;20989;52.566;13.346;2023-05-17T07:13:28;23.70;52.40
34776;DHT22;20989;52.566;13.346;2023-05-17T07:16:29;23.70;52.30
34776;DHT22;20989;52.566;13.346;2023-05-17T07:19:30;23.80;52.20
34776;DHT22;20989;52.566;13.346;2023-05-17T07:22:31;23.90;52.00
34776;DHT22;20989;52.566;13.346;2023-05-17T07:25:31;24.00;51.80
34776;DHT22;20989;52.566;13.346;2023-05-17T07:28:32;23.80;52.50
34776;DHT22;20989;52.566;13.346;2023-05-17T07:31:33;23.90;52.10
34776;DHT22;20989;52.566;13.346;2023-05-17T07:34:34;23.80;52.20
34776;DHT22;20989;52.566;13.346;2023-05-17T07:37:35;23.80;52.60
34776;DHT22;20989;52.566;13.346;2023-05-17T07:40:36;23.80;52.60
34776;DHT22;20989;52.566;13.346;2023-05-17T07:43:37;23.70;52.50
34776;DHT22;20989;52.566;13.346;2023-05-17T07:46:38;23.90;52.50
34776;DHT22;20989;52.566;13.346;2023-05-17T07:49:38;23.70;52.80
34776;DHT22;20989;52.566;13.346;2023-05-17T07:52:39;23.70;52.60
34776;DHT22;20989;52.566;13.346;2023-05-17T07:55:40;23.70;52.60
34776;DHT22;20989;52.566;13.346;2023-05-17T07:58:41;23.70;52.90
34776;DHT22;20989;52.566;13.346;2023-05-17T08:01:41;23.60;52.80
34776;DHT22;20989;52.566;13.346;2023-05-17T08:04:42;23.70;50.30
34776;DHT22;20989;52.566;13.346;2023-05-17T08:07:43;23.80;51.00
34776;DHT22;20989;52.566;13.346;2023-05-17T08:10:44;23.80;51.30
34776;DHT22;20989;52.566;13.346;2023-05-17T08:13:45;24.00;50.30
34776;DHT22;20989;52.566;13.346;2023-05-17T08:16:46;24.10;50.10
34776;DHT22;20989;52.566;13.346;2023-05-17T08:19:46;24.00;51.20
34776;DHT22;20989;52.566;13.346;2023-05-17T08:22:47;23.90;51.20
34776;DHT22;20989;52.566;13.346;2023-05-17T08:25:48;23.80;51.00
34776;DHT22;20989;52.566;13.346;2023-05-17T08:28:49;23.70;51.80
34776;DHT22;20989;52.566;13.346;2023-05-17T08:31:49;23.70;52.30
34776;DHT22;20989;52.566;13.346;2023-05-17T08:34:51;23.80;52.00
34776;DHT22;20989;52.566;13.346;2023-05-17T08:37:52;24.00;52.10
34776;DHT22;20989;52.566;13.346;2023-05-17T08:40:54;24.00;51.50
34776;DHT22;20989;52.566;13.346;2023-05-17T08:43:55;24.00;51.50
34776;DHT22;20989;52.566;13.346;2023-05-17T08:46:56;24.00;51.50
34776;DHT22;20989;52.566;13.346;2023-05-17T08:49:58;24.00;51.40
34776;DHT22;20989;52.566;13.346;2023-05-17T08:53:05;23.90;51.60
34776;DHT22;20989;52.566;13.346;2023-05-17T08:56:08;23.90;51.40
34776;DHT22;20989;52.566;13.346;2023-05-17T08:59:11;24.00;51.40
34776;DHT22;20989;52.566;13.346;2023-05-17T09:02:13;23.90;51.20
34776;DHT22;20989;52.566;13.346;2023-05-17T09:05:15;24.00;51.60
34776;DHT22;20989;52.566;13.346;2023-05-17T09:08:18;23.90;51.40
34776;DHT22;20989;52.566;13.346;2023-05-17T09:11:25;23.90;51.50
34776;DHT22;20989;52.566;13.346;2023-05-17T09:14:31;23.80;51.70
34776;DHT22;20989;52.566;13.346;2023-05-17T09:17:32;23.80;51.60
34776;DHT22;20989;52.566;13.346;2023-05-17T09:20:33;23.80;51.60
34776;DHT22;20989;52.566;13.346;2023-05-17T09:23:37;23.90;51.40
34776;DHT22;20989;52.566;13.346;2023-05-17T09:26:42;24.00;51.90
34776;DHT22;20989;52.566;13.346;2023-05-17T09:29:44;23.90;51.40
34776;DHT22;20989;52.566;13.346;2023-05-17T09:32:48;23.90;51.80
34776;DHT22;20989;52.566;13.346;2023-05-17T09:35:59;23.90;51.30
34776;DHT22;20989;52.566;13.346;2023-05-17T09:39:03;23.90;51.40
34776;DHT22;20989;52.566;13.346;2023-05-17T09:45:55;23.90;51.40
34776;DHT22;20989;52.566;13.346;2023-05-17T09:48:56;24.00;51.60
34776;DHT22;20989;52.566;13.346;2023-05-17T09:51:58;24.00;50.90
34776;DHT22;20989;52.566;13.346;2023-05-17T09:54:59;23.90;50.90
34776;DHT22;20989;52.566;13.346;2023-05-17T09:58:03;23.90;51.10
34776;DHT22;20989;52.566;13.346;2023-05-17T10:01:05;23.90;50.90
34776;DHT22;20989;52.566;13.346;2023-05-17T10:04:27;23.90;50.80
34776;DHT22;20989;52.566;13.346;2023-05-17T10:07:49;23.90;50.70
34776;DHT22;20989;52.566;13.346;2023-05-17T10:10:53;23.80;50.70
34776;DHT22;20989;52.566;13.346;2023-05-17T10:14:06;23.90;50.70
34776;DHT22;20989;52.566;13.346;2023-05-17T10:17:09;23.90;50.50
34776;DHT22;20989;52.566;13.346;2023-05-17T10:20:12;23.90;50.70
34776;DHT22;20989;52.566;13.346;2023-05-17T10:23:15;23.80;50.40
34776;DHT22;20989;52.566;13.346;2023-05-17T10:26:17;23.80;50.20
34776;DHT22;20989;52.566;13.346;2023-05-17T10:29:23;23.80;50.00
34776;DHT22;20989;52.566;13.346;2023-05-17T10:32:26;23.80;50.10
34776;DHT22;20989;52.566;13.346;2023-05-17T10:35:29;23.80;50.00
34776;DHT22;20989;52.566;13.346;2023-05-17T10:38:29;23.80;50.00
34776;DHT22;20989;52.566;13.346;2023-05-17T10:41:32;23.70;49.80
34776;DHT22;20989;52.566;13.346;2023-05-17T10:44:34;23.80;49.80
34776;DHT22;20989;52.566;13.346;2023-05-17T10:47:38;23.80;49.70
34776;DHT22;20989;52.566;13.346;2023-05-17T10:50:45;23.90;50.10
34776;DHT22;20989;52.566;13.346;2023-05-17T10:57:06;23.80;49.80
34776;DHT22;20989;52.566;13.346;2023-05-17T11:00:08;23.80;50.40
34776;DHT22;20989;52.566;13.346;2023-05-17T11:03:13;23.70;49.90
34776;DHT22;20989;52.566;13.346;2023-05-17T11:06:18;23.80;49.70
34776;DHT22;20989;52.566;13.346;2023-05-17T11:09:21;23.80;49.80
34776;DHT22;20989;52.566;13.346;2023-05-17T11:12:32;23.70;49.90
34776;DHT22;20989;52.566;13.346;2023-05-17T11:15:35;23.80;49.80
34776;DHT22;20989;52.566;13.346;2023-05-17T11:18:49;23.80;49.70
34776;DHT22;20989;52.566;13.346;2023-05-17T11:21:50;23.70;49.90
34776;DHT22;20989;52.566;13.346;2023-05-17T11:24:52;23.70;49.90
34776;DHT22;20989;52.566;13.346;2023-05-17T11:27:54;23.70;50.20
34776;DHT22;20989;52.566;13.346;2023-05-17T11:30:59;23.70;49.90
34776;DHT22;20989;52.566;13.346;2023-05-17T11:34:04;23.70;49.80
34776;DHT22;20989;52.566;13.346;2023-05-17T11:37:09;23.70;49.70
34776;DHT22;20989;52.566;13.346;2023-05-17T11:40:11;23.70;49.90
34776;DHT22;20989;52.566;13.346;2023-05-17T11:43:17;23.70;50.00
34776;DHT22;20989;52.566;13.346;2023-05-17T11:46:20;23.70;49.90
34776;DHT22;20989;52.566;13.346;2023-05-17T11:49:21;23.80;49.80
34776;DHT22;20989;52.566;13.346;2023-05-17T11:52:23;23.70;49.70
34776;DHT22;20989;52.566;13.346;2023-05-17T11:55:23;23.80;49.80
34776;DHT22;20989;52.566;13.346;2023-05-17T11:58:25;23.80;49.70
34776;DHT22;20989;52.566;13.346;2023-05-17T12:01:26;23.80;49.70
34776;DHT22;20989;52.566;13.346;2023-05-17T12:04:27;23.80;49.40
34776;DHT22;20989;52.566;13.346;2023-05-17T12:07:27;23.70;49.50
34776;DHT22;20989;52.566;13.346;2023-05-17T12:10:29;23.70;49.60
34776;DHT22;20989;52.566;13.346;2023-05-17T12:13:33;23.70;49.20
34776;DHT22;20989;52.566;13.346;2023-05-17T12:16:35;23.80;49.30
34776;DHT22;20989;52.566;13.346;2023-05-17T12:19:36;23.70;49.50
34776;DHT22;20989;52.566;13.346;2023-05-17T12:22:55;23.70;49.90
34776;DHT22;20989;52.566;13.346;2023-05-17T12:26:03;23.70;49.80
34776;DHT22;20989;52.566;13.346;2023-05-17T12:29:04;23.60;49.50
34776;DHT22;20989;52.566;13.346;2023-05-17T12:32:06;23.60;49.40
34776;DHT22;20989;52.566;13.346;2023-05-17T12:35:08;23.50;49.60
34776;DHT22;20989;52.566;13.346;2023-05-17T12:38:09;23.50;49.60
34776;DHT22;20989;52.566;13.346;2023-05-17T12:41:12;23.50;49.50
34776;DHT22;20989;52.566;13.346;2023-05-17T12:44:13;23.50;49.60
34776;DHT22;20989;52.566;13.346;2023-05-17T12:47:15;23.50;49.30
34776;DHT22;20989;52.566;13.346;2023-05-17T12:50:25;23.50;49.40
34776;DHT22;20989;52.566;13.346;2023-05-17T12:53:34;23.50;48.80
34776;DHT22;20989;52.566;13.346;2023-05-17T12:56:35;23.50;49.20
34776;DHT22;20989;52.566;13.346;2023-05-17T12:59:48;23.50;48.80
34776;DHT22;20989;52.566;13.346;2023-05-17T13:02:49;23.50;49.20
34776;DHT22;20989;52.566;13.346;2023-05-17T13:06:06;23.40;49.00
34776;DHT22;20989;52.566;13.346;2023-05-17T13:09:08;23.40;49.20
34776;DHT22;20989;52.566;13.346;2023-05-17T13:12:09;23.40;48.80
34776;DHT22;20989;52.566;13.346;2023-05-17T13:15:10;23.40;48.80
34776;DHT22;20989;52.566;13.346;2023-05-17T13:18:14;23.40;48.40
34776;DHT22;20989;52.566;13.346;2023-05-17T13:21:17;23.40;48.60
34776;DHT22;20989;52.566;13.346;2023-05-17T13:24:18;23.40;48.80
34776;DHT22;20989;52.566;13.346;2023-05-17T13:27:19;23.40;48.70
34776;DHT22;20989;52.566;13.346;2023-05-17T13:30:19;23.30;48.50
34776;DHT22;20989;52.566;13.346;2023-05-17T13:33:20;23.30;48.60
34776;DHT22;20989;52.566;13.346;2023-05-17T13:36:21;23.30;48.70
34776;DHT22;20989;52.566;13.346;2023-05-17T13:39:22;23.30;48.30
34776;DHT22;20989;52.566;13.346;2023-05-17T13:42:22;23.30;48.20
34776;DHT22;20989;52.566;13.346;2023-05-17T13:45:23;23.30;48.50
34776;DHT22;20989;52.566;13.346;2023-05-17T13:48:24;23.30;48.00
34776;DHT22;20989;52.566;13.346;2023-05-17T13:51:25;23.30;48.30
34776;DHT22;20989;52.566;13.346;2023-05-17T13:54:26;23.30;48.10
34776;DHT22;20989;52.566;13.346;2023-05-17T13:57:27;23.30;48.20
34776;DHT22;20989;52.566;13.346;2023-05-17T14:00:27;23.30;48.10
34776;DHT22;20989;52.566;13.346;2023-05-17T14:03:28;23.30;48.10
34776;DHT22;20989;52.566;13.346;2023-05-17T14:06:29;23.30;48.30
34776;DHT22;20989;52.566;13.346;2023-05-17T14:09:30;23.30;48.50
34776;DHT22;20989;52.566;13.346;2023-05-17T14:12:33;23.30;48.20
34776;DHT22;20989;52.566;13.346;2023-05-17T14:15:34;23.30;48.50
34776;DHT22;20989;52.566;13.346;2023-05-17T14:18:37;23.30;48.10
34776;DHT22;20989;52.566;13.346;2023-05-17T14:21:38;23.30;47.90
34776;DHT22;20989;52.566;13.346;2023-05-17T14:24:38;23.30;48.30
34776;DHT22;20989;52.566;13.346;2023-05-17T14:27:39;23.30;47.80
34776;DHT22;20989;52.566;13.346;2023-05-17T14:30:40;23.30;48.20
34776;DHT22;20989;52.566;13.346;2023-05-17T14:33:41;23.30;47.80
34776;DHT22;20989;52.566;13.346;2023-05-17T14:36:41;23.30;48.00
34776;DHT22;20989;52.566;13.346;2023-05-17T14:39:42;23.20;47.90
34776;DHT22;20989;52.566;13.346;2023-05-17T14:42:43;23.30;48.10
34776;DHT22;20989;52.566;13.346;2023-05-17T14:45:43;23.30;48.20
34776;DHT22;20989;52.566;13.346;2023-05-17T14:48:44;23.30;48.10
34776;DHT22;20989;52.566;13.346;2023-05-17T14:51:45;23.30;48.30
34776;DHT22;20989;52.566;13.346;2023-05-17T14:54:45;23.20;48.10
34776;DHT22;20989;52.566;13.346;2023-05-17T14:57:46;23.20;47.70
34776;DHT22;20989;52.566;13.346;2023-05-17T15:00:47;23.30;47.80
34776;DHT22;20989;52.566;13.346;2023-05-17T15:03:51;23.20;48.10
34776;DHT22;20989;52.566;13.346;2023-05-17T15:06:53;23.20;47.80
34776;DHT22;20989;52.566;13.346;2023-05-17T15:09:54;23.20;48.10
34776;DHT22;20989;52.566;13.346;2023-05-17T15:12:54;23.20;48.20
34776;DHT22;20989;52.566;13.346;2023-05-17T15:15:55;23.20;48.40
34776;DHT22;20989;52.566;13.346;2023-05-17T15:18:57;23.30;48.70
34776;DHT22;20989;52.566;13.346;2023-05-17T15:21:58;23.30;48.50
34776;DHT22;20989;52.566;13.346;2023-05-17T15:24:59;23.20;48.60
34776;DHT22;20989;52.566;13.346;2023-05-17T15:28:00;23.20;48.40
34776;DHT22;20989;52.566;13.346;2023-05-17T15:31:01;23.10;47.50
34776;DHT22;20989;52.566;13.346;2023-05-17T15:34:03;23.10;45.10
34776;DHT22;20989;52.566;13.346;2023-05-17T15:37:04;23.20;45.80
34776;DHT22;20989;52.566;13.346;2023-05-17T15:40:09;23.30;47.10
34776;DHT22;20989;52.566;13.346;2023-05-17T15:43:10;23.30;46.30
34776;DHT22;20989;52.566;13.346;2023-05-17T15:46:11;23.30;46.30
34776;DHT22;20989;52.566;13.346;2023-05-17T15:49:12;23.40;46.60
34776;DHT22;20989;52.566;13.346;2023-05-17T15:52:13;23.50;47.00
34776;DHT22;20989;52.566;13.346;2023-05-17T15:55:14;23.50;47.20
34776;DHT22;20989;52.566;13.346;2023-05-17T15:58:16;23.60;46.90
34776;DHT22;20989;52.566;13.346;2023-05-17T16:01:17;23.70;47.50
34776;DHT22;20989;52.566;13.346;2023-05-17T16:04:18;23.70;47.00
34776;DHT22;20989;52.566;13.346;2023-05-17T16:07:18;23.70;47.50
34776;DHT22;20989;52.566;13.346;2023-05-17T16:10:19;23.70;47.80
34776;DHT22;20989;52.566;13.346;2023-05-17T16:13:20;23.70;47.60
34776;DHT22;20989;52.566;13.346;2023-05-17T16:16:20;23.70;47.40
34776;DHT22;20989;52.566;13.346;2023-05-17T16:19:21;23.70;47.40
34776;DHT22;20989;52.566;13.346;2023-05-17T16:22:22;23.70;47.40
34776;DHT22;20989;52.566;13.346;2023-05-17T16:25:23;23.70;47.40
34776;DHT22;20989;52.566;13.346;2023-05-17T16:28:24;23.80;47.80
34776;DHT22;20989;52.566;13.346;2023-05-17T16:31:25;23.70;47.70
34776;DHT22;20989;52.566;13.346;2023-05-17T16:34:26;23.70;47.90
34776;DHT22;20989;52.566;13.346;2023-05-17T16:37:27;23.70;48.50
34776;DHT22;20989;52.566;13.346;2023-05-17T16:40:28;23.70;48.00
34776;DHT22;20989;52.566;13.346;2023-05-17T16:43:29;23.70;48.20
34776;DHT22;20989;52.566;13.346;2023-05-17T16:46:30;23.70;48.10
34776;DHT22;20989;52.566;13.346;2023-05-17T16:49:31;23.70;48.20
34776;DHT22;20989;52.566;13.346;2023-05-17T16:52:31;23.80;48.30
34776;DHT22;20989;52.566;13.346;2023-05-17T16:55:33;23.80;48.20
34776;DHT22;20989;52.566;13.346;2023-05-17T16:58:35;23.70;48.20
34776;DHT22;20989;52.566;13.346;2023-05-17T17:01:36;23.60;46.50
34776;DHT22;20989;52.566;13.346;2023-05-17T17:04:36;23.30;41.60
34776;DHT22;20989;52.566;13.346;2023-05-17T17:07:37;23.30;43.20
34776;DHT22;20989;52.566;13.346;2023-05-17T17:10:38;23.40;45.10
34776;DHT22;20989;52.566;13.346;2023-05-17T17:13:38;23.30;40.30
34776;DHT22;20989;52.566;13.346;2023-05-17T17:16:39;23.30;40.00
34776;DHT22;20989;52.566;13.346;2023-05-17T17:19:41;23.20;37.50
34776;DHT22;20989;52.566;13.346;2023-05-17T17:22:41;23.20;41.10
34776;DHT22;20989;52.566;13.346;2023-05-17T17:25:42;23.20;38.00
34776;DHT22;20989;52.566;13.346;2023-05-17T17:28:43;23.20;39.70
34776;DHT22;20989;52.566;13.346;2023-05-17T17:31:43;23.20;38.40
34776;DHT22;20989;52.566;13.346;2023-05-17T17:34:44;23.10;38.20
34776;DHT22;20989;52.566;13.346;2023-05-17T17:37:45;23.10;37.80
34776;DHT22;20989;52.566;13.346;2023-05-17T17:40:47;23.10;39.70
34776;DHT22;20989;52.566;13.346;2023-05-17T17:43:48;23.10;38.90
34776;DHT22;20989;52.566;13.346;2023-05-17T17:46:49;23.10;38.80
34776;DHT22;20989;52.566;13.346;2023-05-17T17:49:49;23.00;38.20
34776;DHT22;20989;52.566;13.346;2023-05-17T17:52:50;23.00;39.30
34776;DHT22;20989;52.566;13.346;2023-05-17T17:55:51;23.10;40.20
34776;DHT22;20989;52.566;13.346;2023-05-17T17:58:51;23.20;41.40
34776;DHT22;20989;52.566;13.346;2023-05-17T18:01:55;23.20;40.30
34776;DHT22;20989;52.566;13.346;2023-05-17T18:04:56;23.30;41.80
34776;DHT22;20989;52.566;13.346;2023-05-17T18:07:56;23.30;41.60
34776;DHT22;20989;52.566;13.346;2023-05-17T18:10:57;23.40;41.10
34776;DHT22;20989;52.566;13.346;2023-05-17T18:13:58;23.40;41.80
34776;DHT22;20989;52.566;13.346;2023-05-17T18:16:59;23.40;42.10
34776;DHT22;20989;52.566;13.346;2023-05-17T18:20:00;23.40;41.50
34776;DHT22;20989;52.566;13.346;2023-05-17T18:23:00;23.40;42.10
34776;DHT22;20989;52.566;13.346;2023-05-17T18:26:01;23.40;42.50
34776;DHT22;20989;52.566;13.346;2023-05-17T18:29:02;23.30;42.20
34776;DHT22;20989;52.566;13.346;2023-05-17T18:32:04;23.30;42.60
34776;DHT22;20989;52.566;13.346;2023-05-17T18:35:05;23.30;42.70
34776;DHT22;20989;52.566;13.346;2023-05-17T18:38:06;23.20;42.90
34776;DHT22;20989;52.566;13.346;2023-05-17T18:41:06;23.20;43.30
34776;DHT22;20989;52.566;13.346;2023-05-17T18:44:07;23.20;43.20
34776;DHT22;20989;52.566;13.346;2023-05-17T18:47:07;23.20;43.40
34776;DHT22;20989;52.566;13.346;2023-05-17T18:50:08;23.20;43.70
34776;DHT22;20989;52.566;13.346;2023-05-17T18:53:09;23.10;44.50
34776;DHT22;20989;52.566;13.346;2023-05-17T18:56:12;23.10;44.50
34776;DHT22;20989;52.566;13.346;2023-05-17T18:59:15;23.10;44.00
34776;DHT22;20989;52.566;13.346;2023-05-17T19:02:16;23.10;44.90
34776;DHT22;20989;52.566;13.346;2023-05-17T19:05:16;23.10;44.60
34776;DHT22;20989;52.566;13.346;2023-05-17T19:08:17;23.10;44.40
34776;DHT22;20989;52.566;13.346;2023-05-17T19:11:18;23.10;44.70